sensor_id;sensor_type;location;lat;lon;timestamp;P1;durP1;ratioP1;P2;durP2;ratioP2
16845;SDS011;8539;53.188;8.696;2023-03-01T00:01:18;14.20;;;9.18;;
16845;SDS011;8539;53.188;8.696;2023-03-01T00:03:47;21.90;;;9.50;;
16845;SDS011;8539;53.188;8.696;2023-03-01T00:06:13;17.17;;;9.77;;
16845;SDS011;8539;53.188;8.696;2023-03-01T00:08:40;13.80;;;8.73;;
16845;SDS011;8539;53.188;8.696;2023-03-01T00:13:35;17.42;;;9.40;;
16845;SDS011;8539;53.188;8.696;2023-03-01T00:16:03;18.45;;;9.18;;
16845;SDS011;8539;53.188;8.696;2023-03-01T00:18:30;14.95;;;8.27;;
16845;SDS011;8539;53.188;8.696;2023-03-01T00:20:56;18.00;;;8.73;;
16845;SDS011;8539;53.188;8.696;2023-03-01T00:23:23;16.35;;;9.05;;
16845;SDS011;8539;53.188;8.696;2023-03-01T00:25:50;12.70;;;7.68;;
16845;SDS011;8539;53.188;8.696;2023-03-01T00:28:17;13.15;;;7.93;;
16845;SDS011;8539;53.188;8.696;2023-03-01T00:30:43;17.10;;;8.40;;
16845;SDS011;8539;53.188;8.696;2023-03-01T00:33:10;15.45;;;9.10;;
16845;SDS011;8539;53.188;8.696;2023-03-01T00:35:36;12.50;;;7.72;;
16845;SDS011;8539;53.188;8.696;2023-03-01T00:38:02;13.85;;;8.85;;
16845;SDS011;8539;53.188;8.696;2023-03-01T00:40:29;14.52;;;8.15;;
16845;SDS011;8539;53.188;8.696;2023-03-01T00:42:57;11.30;;;6.95;;
16845;SDS011;8539;53.188;8.696;2023-03-01T00:45:24;13.20;;;7.22;;
16845;SDS011;8539;53.188;8.696;2023-03-01T00:47:50;12.18;;;7.68;;
16845;SDS011;8539;53.188;8.696;2023-03-01T00:50:17;13.00;;;7.10;;
16845;SDS011;8539;53.188;8.696;2023-03-01T00:52:44;14.35;;;8.05;;
16845;SDS011;8539;53.188;8.696;2023-03-01T00:55:11;14.55;;;7.80;;
16845;SDS011;8539;53.188;8.696;2023-03-01T00:57:37;11.88;;;6.93;;
16845;SDS011;8539;53.188;8.696;2023-03-01T01:00:05;13.10;;;7.15;;
16845;SDS011;8539;53.188;8.696;2023-03-01T01:02:32;9.82;;;7.50;;
16845;SDS011;8539;53.188;8.696;2023-03-01T01:04:59;11.20;;;6.13;;
16845;SDS011;8539;53.188;8.696;2023-03-01T01:07:25;12.98;;;8.00;;
16845;SDS011;8539;53.188;8.696;2023-03-01T01:09:52;10.60;;;7.03;;
16845;SDS011;8539;53.188;8.696;2023-03-01T01:12:18;14.13;;;6.55;;
16845;SDS011;8539;53.188;8.696;2023-03-01T01:14:44;10.77;;;6.68;;
16845;SDS011;8539;53.188;8.696;2023-03-01T01:17:10;10.63;;;7.22;;
16845;SDS011;8539;53.188;8.696;2023-03-01T01:19:36;12.25;;;6.57;;
16845;SDS011;8539;53.188;8.696;2023-03-01T01:22:02;12.00;;;6.80;;
16845;SDS011;8539;53.188;8.696;2023-03-01T01:24:28;11.50;;;6.18;;
16845;SDS011;8539;53.188;8.696;2023-03-01T01:26:55;12.38;;;6.72;;
16845;SDS011;8539;53.188;8.696;2023-03-01T01:29:21;12.07;;;6.65;;
16845;SDS011;8539;53.188;8.696;2023-03-01T01:31:47;9.65;;;5.85;;
16845;SDS011;8539;53.188;8.696;2023-03-01T01:34:15;9.73;;;6.07;;
16845;SDS011;8539;53.188;8.696;2023-03-01T01:36:49;10.40;;;6.28;;
16845;SDS011;8539;53.188;8.696;2023-03-01T01:39:18;9.85;;;5.80;;
16845;SDS011;8539;53.188;8.696;2023-03-01T01:41:45;7.97;;;5.03;;
16845;SDS011;8539;53.188;8.696;2023-03-01T01:51:40;9.18;;;5.40;;
16845;SDS011;8539;53.188;8.696;2023-03-01T01:54:13;6.53;;;4.30;;
16845;SDS011;8539;53.188;8.696;2023-03-01T01:56:45;6.68;;;5.18;;
16845;SDS011;8539;53.188;8.696;2023-03-01T01:59:16;7.97;;;5.47;;
16845;SDS011;8539;53.188;8.696;2023-03-01T02:01:43;9.90;;;5.53;;
16845;SDS011;8539;53.188;8.696;2023-03-01T02:04:09;9.27;;;5.53;;
16845;SDS011;8539;53.188;8.696;2023-03-01T02:06:36;10.93;;;5.72;;
16845;SDS011;8539;53.188;8.696;2023-03-01T02:09:07;8.73;;;5.90;;
16845;SDS011;8539;53.188;8.696;2023-03-01T02:11:38;6.05;;;5.00;;
16845;SDS011;8539;53.188;8.696;2023-03-01T02:14:04;9.43;;;7.10;;
16845;SDS011;8539;53.188;8.696;2023-03-01T02:16:31;10.75;;;5.72;;
16845;SDS011;8539;53.188;8.696;2023-03-01T02:18:58;9.00;;;6.28;;
16845;SDS011;8539;53.188;8.696;2023-03-01T02:26:55;11.27;;;6.10;;
16845;SDS011;8539;53.188;8.696;2023-03-01T02:29:25;11.30;;;5.45;;
16845;SDS011;8539;53.188;8.696;2023-03-01T02:31:54;8.95;;;4.75;;
16845;SDS011;8539;53.188;8.696;2023-03-01T02:34:24;10.13;;;6.22;;
16845;SDS011;8539;53.188;8.696;2023-03-01T02:36:56;8.77;;;5.20;;
16845;SDS011;8539;53.188;8.696;2023-03-01T02:39:30;12.20;;;4.70;;
16845;SDS011;8539;53.188;8.696;2023-03-01T02:42:11;9.52;;;5.65;;
16845;SDS011;8539;53.188;8.696;2023-03-01T02:44:41;7.95;;;5.05;;
16845;SDS011;8539;53.188;8.696;2023-03-01T02:47:08;8.35;;;4.78;;
16845;SDS011;8539;53.188;8.696;2023-03-01T02:49:35;8.20;;;4.80;;
16845;SDS011;8539;53.188;8.696;2023-03-01T02:55:00;12.13;;;4.88;;
16845;SDS011;8539;53.188;8.696;2023-03-01T02:57:38;8.73;;;5.47;;
16845;SDS011;8539;53.188;8.696;2023-03-01T03:00:08;11.02;;;5.63;;
16845;SDS011;8539;53.188;8.696;2023-03-01T03:02:36;7.72;;;5.25;;
16845;SDS011;8539;53.188;8.696;2023-03-01T03:05:19;8.98;;;5.80;;
16845;SDS011;8539;53.188;8.696;2023-03-01T03:07:47;7.65;;;5.07;;
16845;SDS011;8539;53.188;8.696;2023-03-01T03:10:18;15.45;;;4.93;;
16845;SDS011;8539;53.188;8.696;2023-03-01T03:12:53;10.05;;;5.68;;
16845;SDS011;8539;53.188;8.696;2023-03-01T03:15:22;7.53;;;5.10;;
16845;SDS011;8539;53.188;8.696;2023-03-01T03:17:49;8.05;;;5.32;;
16845;SDS011;8539;53.188;8.696;2023-03-01T03:20:16;9.40;;;5.35;;
16845;SDS011;8539;53.188;8.696;2023-03-01T03:22:46;7.88;;;4.63;;
16845;SDS011;8539;53.188;8.696;2023-03-01T03:25:13;14.23;;;5.65;;
16845;SDS011;8539;53.188;8.696;2023-03-01T03:27:40;11.00;;;6.22;;
16845;SDS011;8539;53.188;8.696;2023-03-01T03:30:10;9.48;;;5.38;;
16845;SDS011;8539;53.188;8.696;2023-03-01T03:32:39;7.28;;;5.30;;
16845;SDS011;8539;53.188;8.696;2023-03-01T03:35:09;8.02;;;5.30;;
16845;SDS011;8539;53.188;8.696;2023-03-01T03:37:36;10.43;;;5.10;;
16845;SDS011;8539;53.188;8.696;2023-03-01T03:40:22;6.97;;;5.18;;
16845;SDS011;8539;53.188;8.696;2023-03-01T03:42:48;8.25;;;6.10;;
16845;SDS011;8539;53.188;8.696;2023-03-01T03:45:15;10.02;;;4.90;;
16845;SDS011;8539;53.188;8.696;2023-03-01T03:47:42;10.40;;;5.28;;
16845;SDS011;8539;53.188;8.696;2023-03-01T03:50:12;7.68;;;4.65;;
16845;SDS011;8539;53.188;8.696;2023-03-01T03:52:40;9.32;;;6.00;;
16845;SDS011;8539;53.188;8.696;2023-03-01T03:55:08;9.93;;;5.93;;
16845;SDS011;8539;53.188;8.696;2023-03-01T03:57:37;7.07;;;5.50;;
16845;SDS011;8539;53.188;8.696;2023-03-01T04:00:04;9.00;;;5.60;;
16845;SDS011;8539;53.188;8.696;2023-03-01T04:02:32;7.43;;;5.45;;
16845;SDS011;8539;53.188;8.696;2023-03-01T04:04:58;9.68;;;5.05;;
16845;SDS011;8539;53.188;8.696;2023-03-01T04:07:24;8.60;;;5.65;;
16845;SDS011;8539;53.188;8.696;2023-03-01T04:09:50;9.02;;;7.03;;
16845;SDS011;8539;53.188;8.696;2023-03-01T04:12:16;6.22;;;5.22;;
16845;SDS011;8539;53.188;8.696;2023-03-01T04:14:48;8.70;;;5.53;;
16845;SDS011;8539;53.188;8.696;2023-03-01T04:17:14;8.35;;;5.35;;
16845;SDS011;8539;53.188;8.696;2023-03-01T04:19:40;9.27;;;5.65;;
16845;SDS011;8539;53.188;8.696;2023-03-01T04:22:09;8.90;;;5.68;;
16845;SDS011;8539;53.188;8.696;2023-03-01T04:24:36;14.55;;;6.25;;
16845;SDS011;8539;53.188;8.696;2023-03-01T04:27:02;11.52;;;6.30;;
16845;SDS011;8539;53.188;8.696;2023-03-01T04:29:28;11.20;;;5.88;;
16845;SDS011;8539;53.188;8.696;2023-03-01T04:31:54;13.52;;;6.70;;
16845;SDS011;8539;53.188;8.696;2023-03-01T04:34:20;13.32;;;6.88;;
16845;SDS011;8539;53.188;8.696;2023-03-01T04:36:46;11.23;;;6.88;;
16845;SDS011;8539;53.188;8.696;2023-03-01T04:39:13;13.00;;;7.43;;
16845;SDS011;8539;53.188;8.696;2023-03-01T04:41:39;11.60;;;6.72;;
16845;SDS011;8539;53.188;8.696;2023-03-01T04:44:08;15.18;;;8.07;;
16845;SDS011;8539;53.188;8.696;2023-03-01T04:46:35;10.18;;;6.72;;
16845;SDS011;8539;53.188;8.696;2023-03-01T04:49:02;14.00;;;7.90;;
16845;SDS011;8539;53.188;8.696;2023-03-01T04:51:28;13.00;;;7.15;;
16845;SDS011;8539;53.188;8.696;2023-03-01T04:53:54;10.68;;;7.30;;
16845;SDS011;8539;53.188;8.696;2023-03-01T04:56:20;16.65;;;7.57;;
16845;SDS011;8539;53.188;8.696;2023-03-01T04:58:48;11.02;;;7.03;;
16845;SDS011;8539;53.188;8.696;2023-03-01T05:01:16;13.05;;;7.32;;
16845;SDS011;8539;53.188;8.696;2023-03-01T05:03:44;10.38;;;6.97;;
16845;SDS011;8539;53.188;8.696;2023-03-01T05:06:17;13.88;;;6.32;;
16845;SDS011;8539;53.188;8.696;2023-03-01T05:08:44;12.38;;;6.38;;
16845;SDS011;8539;53.188;8.696;2023-03-01T05:11:10;13.98;;;6.32;;
16845;SDS011;8539;53.188;8.696;2023-03-01T05:13:37;9.18;;;6.03;;
16845;SDS011;8539;53.188;8.696;2023-03-01T05:16:05;12.70;;;6.55;;
16845;SDS011;8539;53.188;8.696;2023-03-01T05:18:36;12.23;;;7.00;;
16845;SDS011;8539;53.188;8.696;2023-03-01T05:21:04;10.25;;;7.32;;
16845;SDS011;8539;53.188;8.696;2023-03-01T05:23:33;13.88;;;6.60;;
16845;SDS011;8539;53.188;8.696;2023-03-01T05:26:00;8.52;;;6.05;;
16845;SDS011;8539;53.188;8.696;2023-03-01T05:28:27;14.40;;;7.15;;
16845;SDS011;8539;53.188;8.696;2023-03-01T05:30:54;10.38;;;6.93;;
16845;SDS011;8539;53.188;8.696;2023-03-01T05:33:20;13.82;;;7.38;;
16845;SDS011;8539;53.188;8.696;2023-03-01T05:35:47;18.80;;;7.55;;
16845;SDS011;8539;53.188;8.696;2023-03-01T05:38:15;9.77;;;6.47;;
16845;SDS011;8539;53.188;8.696;2023-03-01T05:40:42;10.63;;;6.47;;
16845;SDS011;8539;53.188;8.696;2023-03-01T05:43:09;12.02;;;6.22;;
16845;SDS011;8539;53.188;8.696;2023-03-01T05:45:37;10.05;;;6.70;;
16845;SDS011;8539;53.188;8.696;2023-03-01T05:48:04;10.95;;;6.07;;
16845;SDS011;8539;53.188;8.696;2023-03-01T05:50:35;11.23;;;6.13;;
16845;SDS011;8539;53.188;8.696;2023-03-01T05:55:40;8.88;;;6.10;;
16845;SDS011;8539;53.188;8.696;2023-03-01T05:58:09;13.75;;;6.90;;
16845;SDS011;8539;53.188;8.696;2023-03-01T06:00:37;10.80;;;6.97;;
16845;SDS011;8539;53.188;8.696;2023-03-01T06:03:03;17.25;;;7.63;;
16845;SDS011;8539;53.188;8.696;2023-03-01T06:05:29;22.58;;;10.45;;
16845;SDS011;8539;53.188;8.696;2023-03-01T06:07:58;16.73;;;9.15;;
16845;SDS011;8539;53.188;8.696;2023-03-01T06:10:25;14.43;;;8.70;;
16845;SDS011;8539;53.188;8.696;2023-03-01T06:12:51;14.13;;;8.07;;
16845;SDS011;8539;53.188;8.696;2023-03-01T06:15:17;19.23;;;11.10;;
16845;SDS011;8539;53.188;8.696;2023-03-01T06:17:44;20.08;;;10.07;;
16845;SDS011;8539;53.188;8.696;2023-03-01T06:22:48;21.88;;;10.55;;
16845;SDS011;8539;53.188;8.696;2023-03-01T06:25:15;14.55;;;9.50;;
16845;SDS011;8539;53.188;8.696;2023-03-01T06:27:43;17.50;;;8.80;;
16845;SDS011;8539;53.188;8.696;2023-03-01T06:30:11;17.33;;;8.45;;
16845;SDS011;8539;53.188;8.696;2023-03-01T06:32:39;16.90;;;8.63;;
16845;SDS011;8539;53.188;8.696;2023-03-01T06:35:07;14.18;;;8.35;;
16845;SDS011;8539;53.188;8.696;2023-03-01T06:37:39;18.83;;;8.70;;
16845;SDS011;8539;53.188;8.696;2023-03-01T06:40:06;15.18;;;8.73;;
16845;SDS011;8539;53.188;8.696;2023-03-01T06:42:36;13.52;;;8.25;;
16845;SDS011;8539;53.188;8.696;2023-03-01T06:45:04;16.20;;;8.80;;
16845;SDS011;8539;53.188;8.696;2023-03-01T06:47:31;14.75;;;8.43;;
16845;SDS011;8539;53.188;8.696;2023-03-01T06:49:58;15.40;;;7.68;;
16845;SDS011;8539;53.188;8.696;2023-03-01T06:52:25;17.58;;;7.90;;
16845;SDS011;8539;53.188;8.696;2023-03-01T06:54:51;16.65;;;8.40;;
16845;SDS011;8539;53.188;8.696;2023-03-01T06:57:17;14.85;;;8.23;;
16845;SDS011;8539;53.188;8.696;2023-03-01T06:59:44;13.63;;;8.45;;
16845;SDS011;8539;53.188;8.696;2023-03-01T07:02:10;14.07;;;7.53;;
16845;SDS011;8539;53.188;8.696;2023-03-01T07:04:37;14.48;;;8.30;;
16845;SDS011;8539;53.188;8.696;2023-03-01T07:07:04;12.82;;;8.27;;
16845;SDS011;8539;53.188;8.696;2023-03-01T07:09:31;16.17;;;7.85;;
16845;SDS011;8539;53.188;8.696;2023-03-01T07:11:57;13.80;;;7.70;;
16845;SDS011;8539;53.188;8.696;2023-03-01T07:14:23;14.25;;;7.93;;
16845;SDS011;8539;53.188;8.696;2023-03-01T07:16:51;20.63;;;8.15;;
16845;SDS011;8539;53.188;8.696;2023-03-01T07:19:20;15.88;;;8.52;;
16845;SDS011;8539;53.188;8.696;2023-03-01T07:21:47;14.50;;;8.23;;
16845;SDS011;8539;53.188;8.696;2023-03-01T07:24:13;13.70;;;7.80;;
16845;SDS011;8539;53.188;8.696;2023-03-01T07:26:39;17.77;;;8.52;;
16845;SDS011;8539;53.188;8.696;2023-03-01T07:29:06;12.55;;;7.70;;
16845;SDS011;8539;53.188;8.696;2023-03-01T07:31:33;17.00;;;8.43;;
16845;SDS011;8539;53.188;8.696;2023-03-01T07:33:59;12.65;;;8.38;;
16845;SDS011;8539;53.188;8.696;2023-03-01T07:36:25;14.18;;;7.07;;
16845;SDS011;8539;53.188;8.696;2023-03-01T07:38:52;18.52;;;9.32;;
16845;SDS011;8539;53.188;8.696;2023-03-01T07:41:18;18.80;;;9.65;;
16845;SDS011;8539;53.188;8.696;2023-03-01T07:43:44;17.70;;;9.93;;
16845;SDS011;8539;53.188;8.696;2023-03-01T07:46:10;17.63;;;11.25;;
16845;SDS011;8539;53.188;8.696;2023-03-01T07:48:36;26.33;;;11.57;;
16845;SDS011;8539;53.188;8.696;2023-03-01T07:51:03;17.08;;;10.23;;
16845;SDS011;8539;53.188;8.696;2023-03-01T07:53:31;15.45;;;11.15;;
16845;SDS011;8539;53.188;8.696;2023-03-01T07:58:31;17.17;;;11.15;;
16845;SDS011;8539;53.188;8.696;2023-03-01T08:01:03;17.30;;;11.45;;
16845;SDS011;8539;53.188;8.696;2023-03-01T08:03:30;26.23;;;13.38;;
16845;SDS011;8539;53.188;8.696;2023-03-01T08:05:59;21.75;;;14.18;;
16845;SDS011;8539;53.188;8.696;2023-03-01T08:08:26;19.15;;;12.20;;
16845;SDS011;8539;53.188;8.696;2023-03-01T08:10:52;21.15;;;12.98;;
16845;SDS011;8539;53.188;8.696;2023-03-01T08:13:21;20.55;;;13.63;;
16845;SDS011;8539;53.188;8.696;2023-03-01T08:15:51;26.65;;;11.93;;
16845;SDS011;8539;53.188;8.696;2023-03-01T08:18:17;19.52;;;10.18;;
16845;SDS011;8539;53.188;8.696;2023-03-01T08:20:45;17.33;;;10.73;;
16845;SDS011;8539;53.188;8.696;2023-03-01T08:23:11;15.40;;;10.77;;
16845;SDS011;8539;53.188;8.696;2023-03-01T08:25:38;17.50;;;11.68;;
16845;SDS011;8539;53.188;8.696;2023-03-01T08:28:04;16.50;;;11.52;;
16845;SDS011;8539;53.188;8.696;2023-03-01T08:30:30;18.33;;;11.02;;
16845;SDS011;8539;53.188;8.696;2023-03-01T08:32:57;17.90;;;11.75;;
16845;SDS011;8539;53.188;8.696;2023-03-01T08:35:23;16.40;;;10.95;;
16845;SDS011;8539;53.188;8.696;2023-03-01T08:37:49;14.70;;;10.88;;
16845;SDS011;8539;53.188;8.696;2023-03-01T08:40:15;17.38;;;11.15;;
16845;SDS011;8539;53.188;8.696;2023-03-01T08:42:41;16.45;;;11.30;;
16845;SDS011;8539;53.188;8.696;2023-03-01T08:45:08;17.48;;;9.20;;
16845;SDS011;8539;53.188;8.696;2023-03-01T08:47:35;19.08;;;9.90;;
16845;SDS011;8539;53.188;8.696;2023-03-01T08:50:02;17.88;;;10.15;;
16845;SDS011;8539;53.188;8.696;2023-03-01T08:52:28;17.63;;;9.93;;
16845;SDS011;8539;53.188;8.696;2023-03-01T08:54:56;19.27;;;8.82;;
16845;SDS011;8539;53.188;8.696;2023-03-01T08:57:22;15.82;;;7.00;;
16845;SDS011;8539;53.188;8.696;2023-03-01T08:59:49;14.50;;;7.20;;
16845;SDS011;8539;53.188;8.696;2023-03-01T09:02:16;16.48;;;7.25;;
16845;SDS011;8539;53.188;8.696;2023-03-01T09:04:44;13.18;;;7.70;;
16845;SDS011;8539;53.188;8.696;2023-03-01T09:07:10;13.32;;;7.45;;
16845;SDS011;8539;53.188;8.696;2023-03-01T09:09:37;14.20;;;6.63;;
16845;SDS011;8539;53.188;8.696;2023-03-01T09:12:03;12.48;;;6.88;;
16845;SDS011;8539;53.188;8.696;2023-03-01T09:14:29;12.10;;;6.63;;
16845;SDS011;8539;53.188;8.696;2023-03-01T09:16:56;12.77;;;8.88;;
16845;SDS011;8539;53.188;8.696;2023-03-01T09:19:22;11.32;;;6.15;;
16845;SDS011;8539;53.188;8.696;2023-03-01T09:21:48;7.97;;;5.25;;
16845;SDS011;8539;53.188;8.696;2023-03-01T09:24:18;10.55;;;5.85;;
16845;SDS011;8539;53.188;8.696;2023-03-01T09:26:46;7.10;;;5.03;;
16845;SDS011;8539;53.188;8.696;2023-03-01T09:29:13;9.40;;;4.65;;
16845;SDS011;8539;53.188;8.696;2023-03-01T09:31:40;8.95;;;5.05;;
16845;SDS011;8539;53.188;8.696;2023-03-01T09:34:10;11.75;;;6.03;;
16845;SDS011;8539;53.188;8.696;2023-03-01T09:36:36;7.13;;;4.07;;
16845;SDS011;8539;53.188;8.696;2023-03-01T09:39:03;7.65;;;3.35;;
16845;SDS011;8539;53.188;8.696;2023-03-01T09:41:38;4.93;;;3.38;;
16845;SDS011;8539;53.188;8.696;2023-03-01T09:47:03;3.38;;;2.60;;
16845;SDS011;8539;53.188;8.696;2023-03-01T09:49:36;5.68;;;3.42;;
16845;SDS011;8539;53.188;8.696;2023-03-01T09:54:54;4.53;;;2.90;;
16845;SDS011;8539;53.188;8.696;2023-03-01T10:13:13;8.43;;;6.00;;
16845;SDS011;8539;53.188;8.696;2023-03-01T10:15:47;8.70;;;4.95;;
16845;SDS011;8539;53.188;8.696;2023-03-01T10:18:21;7.03;;;4.70;;
16845;SDS011;8539;53.188;8.696;2023-03-01T10:20:57;9.40;;;6.10;;
16845;SDS011;8539;53.188;8.696;2023-03-01T10:23:27;12.38;;;5.03;;
16845;SDS011;8539;53.188;8.696;2023-03-01T10:26:07;8.07;;;6.07;;
16845;SDS011;8539;53.188;8.696;2023-03-01T10:31:13;9.68;;;6.00;;
16845;SDS011;8539;53.188;8.696;2023-03-01T10:33:43;8.68;;;6.72;;
16845;SDS011;8539;53.188;8.696;2023-03-01T10:36:10;11.00;;;6.97;;
16845;SDS011;8539;53.188;8.696;2023-03-01T10:38:50;11.00;;;7.10;;
16845;SDS011;8539;53.188;8.696;2023-03-01T10:41:22;9.43;;;6.80;;
16845;SDS011;8539;53.188;8.696;2023-03-01T10:43:54;9.13;;;6.35;;
16845;SDS011;8539;53.188;8.696;2023-03-01T10:46:29;11.32;;;7.57;;
16845;SDS011;8539;53.188;8.696;2023-03-01T10:49:12;12.43;;;9.00;;
16845;SDS011;8539;53.188;8.696;2023-03-01T10:51:42;10.90;;;8.50;;
16845;SDS011;8539;53.188;8.696;2023-03-01T10:54:17;12.98;;;9.55;;
16845;SDS011;8539;53.188;8.696;2023-03-01T10:56:49;11.95;;;9.07;;
16845;SDS011;8539;53.188;8.696;2023-03-01T10:59:21;13.38;;;9.82;;
16845;SDS011;8539;53.188;8.696;2023-03-01T11:07:46;15.75;;;10.90;;
16845;SDS011;8539;53.188;8.696;2023-03-01T11:10:21;13.65;;;10.50;;
16845;SDS011;8539;53.188;8.696;2023-03-01T11:13:08;14.05;;;10.57;;
16845;SDS011;8539;53.188;8.696;2023-03-01T11:15:40;16.27;;;12.90;;
16845;SDS011;8539;53.188;8.696;2023-03-01T11:18:26;16.63;;;11.35;;
16845;SDS011;8539;53.188;8.696;2023-03-01T11:20:54;14.10;;;10.27;;
16845;SDS011;8539;53.188;8.696;2023-03-01T11:23:21;13.70;;;10.40;;
16845;SDS011;8539;53.188;8.696;2023-03-01T11:25:53;16.67;;;10.85;;
16845;SDS011;8539;53.188;8.696;2023-03-01T11:28:22;13.68;;;10.45;;
16845;SDS011;8539;53.188;8.696;2023-03-01T11:31:07;13.25;;;10.07;;
16845;SDS011;8539;53.188;8.696;2023-03-01T11:42:28;12.35;;;10.25;;
16845;SDS011;8539;53.188;8.696;2023-03-01T11:44:51;12.02;;;9.63;;
16845;SDS011;8539;53.188;8.696;2023-03-01T11:47:33;12.80;;;10.18;;
16845;SDS011;8539;53.188;8.696;2023-03-01T11:50:16;12.77;;;9.90;;
16845;SDS011;8539;53.188;8.696;2023-03-01T11:53:04;12.98;;;9.90;;
16845;SDS011;8539;53.188;8.696;2023-03-01T12:01:20;12.43;;;10.50;;
16845;SDS011;8539;53.188;8.696;2023-03-01T12:12:36;12.88;;;10.70;;
16845;SDS011;8539;53.188;8.696;2023-03-01T12:18:11;14.05;;;11.07;;
16845;SDS011;8539;53.188;8.696;2023-03-01T12:48:58;17.05;;;12.55;;
16845;SDS011;8539;53.188;8.696;2023-03-01T12:51:34;18.48;;;13.20;;
16845;SDS011;8539;53.188;8.696;2023-03-01T12:54:06;17.13;;;12.60;;
16845;SDS011;8539;53.188;8.696;2023-03-01T12:56:41;16.02;;;12.88;;
16845;SDS011;8539;53.188;8.696;2023-03-01T12:59:24;16.17;;;12.27;;
16845;SDS011;8539;53.188;8.696;2023-03-01T13:02:19;18.33;;;12.73;;
16845;SDS011;8539;53.188;8.696;2023-03-01T13:13:19;18.23;;;12.57;;
16845;SDS011;8539;53.188;8.696;2023-03-01T13:15:46;19.95;;;12.35;;
16845;SDS011;8539;53.188;8.696;2023-03-01T13:20:48;18.70;;;12.00;;
16845;SDS011;8539;53.188;8.696;2023-03-01T13:33:52;17.25;;;12.63;;
16845;SDS011;8539;53.188;8.696;2023-03-01T13:44:49;16.45;;;11.07;;
16845;SDS011;8539;53.188;8.696;2023-03-01T13:49:46;15.85;;;12.73;;
16845;SDS011;8539;53.188;8.696;2023-03-01T13:55:04;15.90;;;12.23;;
16845;SDS011;8539;53.188;8.696;2023-03-01T13:57:43;16.27;;;12.75;;
16845;SDS011;8539;53.188;8.696;2023-03-01T14:00:36;18.75;;;13.63;;
16845;SDS011;8539;53.188;8.696;2023-03-01T14:03:14;17.58;;;13.82;;
16845;SDS011;8539;53.188;8.696;2023-03-01T14:05:42;18.90;;;12.40;;
16845;SDS011;8539;53.188;8.696;2023-03-01T14:08:23;18.90;;;13.07;;
16845;SDS011;8539;53.188;8.696;2023-03-01T14:10:58;21.50;;;12.90;;
16845;SDS011;8539;53.188;8.696;2023-03-01T14:13:54;18.98;;;13.05;;
16845;SDS011;8539;53.188;8.696;2023-03-01T14:16:28;18.33;;;13.98;;
16845;SDS011;8539;53.188;8.696;2023-03-01T14:19:14;16.45;;;12.10;;
16845;SDS011;8539;53.188;8.696;2023-03-01T14:25:03;15.43;;;11.90;;
16845;SDS011;8539;53.188;8.696;2023-03-01T14:27:41;16.73;;;12.55;;
16845;SDS011;8539;53.188;8.696;2023-03-01T14:30:10;14.82;;;11.65;;
16845;SDS011;8539;53.188;8.696;2023-03-01T14:32:43;22.00;;;12.63;;
16845;SDS011;8539;53.188;8.696;2023-03-01T14:35:26;16.70;;;12.43;;
16845;SDS011;8539;53.188;8.696;2023-03-01T14:37:54;16.48;;;11.45;;
16845;SDS011;8539;53.188;8.696;2023-03-01T14:40:21;17.48;;;11.75;;
16845;SDS011;8539;53.188;8.696;2023-03-01T14:42:49;20.17;;;13.63;;
16845;SDS011;8539;53.188;8.696;2023-03-01T14:45:16;19.05;;;12.60;;
16845;SDS011;8539;53.188;8.696;2023-03-01T14:47:43;17.70;;;11.68;;
16845;SDS011;8539;53.188;8.696;2023-03-01T14:52:50;17.17;;;12.18;;
16845;SDS011;8539;53.188;8.696;2023-03-01T14:55:31;16.83;;;12.38;;
16845;SDS011;8539;53.188;8.696;2023-03-01T14:58:05;16.70;;;13.13;;
16845;SDS011;8539;53.188;8.696;2023-03-01T15:00:34;20.33;;;13.95;;
16845;SDS011;8539;53.188;8.696;2023-03-01T15:03:08;18.38;;;12.52;;
16845;SDS011;8539;53.188;8.696;2023-03-01T15:05:39;19.27;;;12.93;;
16845;SDS011;8539;53.188;8.696;2023-03-01T15:08:07;18.60;;;12.20;;
16845;SDS011;8539;53.188;8.696;2023-03-01T15:10:59;17.10;;;12.07;;
16845;SDS011;8539;53.188;8.696;2023-03-01T15:13:32;22.77;;;14.05;;
16845;SDS011;8539;53.188;8.696;2023-03-01T15:16:07;19.08;;;11.95;;
16845;SDS011;8539;53.188;8.696;2023-03-01T15:18:45;15.98;;;13.07;;
16845;SDS011;8539;53.188;8.696;2023-03-01T15:23:54;22.25;;;12.25;;
16845;SDS011;8539;53.188;8.696;2023-03-01T15:29:56;19.13;;;12.32;;
16845;SDS011;8539;53.188;8.696;2023-03-01T15:35:32;17.98;;;12.65;;
16845;SDS011;8539;53.188;8.696;2023-03-01T15:40:55;17.77;;;13.57;;
16845;SDS011;8539;53.188;8.696;2023-03-01T15:46:19;21.58;;;14.73;;
16845;SDS011;8539;53.188;8.696;2023-03-01T15:49:04;22.45;;;14.75;;
16845;SDS011;8539;53.188;8.696;2023-03-01T15:51:46;21.13;;;13.43;;
16845;SDS011;8539;53.188;8.696;2023-03-01T15:56:47;24.58;;;14.25;;
16845;SDS011;8539;53.188;8.696;2023-03-01T15:59:13;21.35;;;14.23;;
16845;SDS011;8539;53.188;8.696;2023-03-01T16:01:40;19.70;;;13.35;;
16845;SDS011;8539;53.188;8.696;2023-03-01T16:04:09;20.88;;;14.52;;
16845;SDS011;8539;53.188;8.696;2023-03-01T16:06:38;19.70;;;12.98;;
16845;SDS011;8539;53.188;8.696;2023-03-01T16:09:05;23.48;;;14.70;;
16845;SDS011;8539;53.188;8.696;2023-03-01T16:11:31;19.67;;;13.63;;
16845;SDS011;8539;53.188;8.696;2023-03-01T16:13:57;20.75;;;14.85;;
16845;SDS011;8539;53.188;8.696;2023-03-01T16:16:24;20.85;;;13.55;;
16845;SDS011;8539;53.188;8.696;2023-03-01T16:18:50;21.05;;;14.38;;
16845;SDS011;8539;53.188;8.696;2023-03-01T16:21:18;24.95;;;14.82;;
16845;SDS011;8539;53.188;8.696;2023-03-01T16:23:46;26.73;;;15.15;;
16845;SDS011;8539;53.188;8.696;2023-03-01T16:26:13;24.77;;;14.57;;
16845;SDS011;8539;53.188;8.696;2023-03-01T16:28:40;22.75;;;15.48;;
16845;SDS011;8539;53.188;8.696;2023-03-01T16:31:07;21.23;;;13.55;;
16845;SDS011;8539;53.188;8.696;2023-03-01T16:33:34;20.75;;;13.93;;
16845;SDS011;8539;53.188;8.696;2023-03-01T16:36:05;22.80;;;13.43;;
16845;SDS011;8539;53.188;8.696;2023-03-01T16:38:33;23.60;;;14.57;;
16845;SDS011;8539;53.188;8.696;2023-03-01T16:41:00;23.92;;;14.45;;
16845;SDS011;8539;53.188;8.696;2023-03-01T16:43:26;27.17;;;15.27;;
16845;SDS011;8539;53.188;8.696;2023-03-01T16:45:52;20.15;;;13.55;;
16845;SDS011;8539;53.188;8.696;2023-03-01T16:48:18;24.60;;;15.40;;
16845;SDS011;8539;53.188;8.696;2023-03-01T16:50:44;22.92;;;13.57;;
16845;SDS011;8539;53.188;8.696;2023-03-01T16:53:10;25.67;;;14.23;;
16845;SDS011;8539;53.188;8.696;2023-03-01T16:55:37;22.77;;;13.00;;
16845;SDS011;8539;53.188;8.696;2023-03-01T16:58:10;22.20;;;13.88;;
16845;SDS011;8539;53.188;8.696;2023-03-01T17:00:36;23.90;;;14.50;;
16845;SDS011;8539;53.188;8.696;2023-03-01T17:03:02;24.15;;;13.32;;
16845;SDS011;8539;53.188;8.696;2023-03-01T17:05:28;22.30;;;15.48;;
16845;SDS011;8539;53.188;8.696;2023-03-01T17:07:54;21.60;;;14.18;;
16845;SDS011;8539;53.188;8.696;2023-03-01T17:10:23;23.08;;;13.98;;
16845;SDS011;8539;53.188;8.696;2023-03-01T17:12:49;20.77;;;13.35;;
16845;SDS011;8539;53.188;8.696;2023-03-01T17:15:15;24.58;;;14.80;;
16845;SDS011;8539;53.188;8.696;2023-03-01T17:17:42;27.48;;;15.23;;
16845;SDS011;8539;53.188;8.696;2023-03-01T17:20:08;26.92;;;16.25;;
16845;SDS011;8539;53.188;8.696;2023-03-01T17:22:35;26.23;;;13.93;;
16845;SDS011;8539;53.188;8.696;2023-03-01T17:25:01;24.63;;;14.50;;
16845;SDS011;8539;53.188;8.696;2023-03-01T17:27:27;25.90;;;14.75;;
16845;SDS011;8539;53.188;8.696;2023-03-01T17:29:53;29.92;;;15.43;;
16845;SDS011;8539;53.188;8.696;2023-03-01T17:32:19;23.75;;;15.30;;
16845;SDS011;8539;53.188;8.696;2023-03-01T17:34:46;26.83;;;15.40;;
16845;SDS011;8539;53.188;8.696;2023-03-01T17:37:12;26.35;;;16.50;;
16845;SDS011;8539;53.188;8.696;2023-03-01T17:39:38;26.77;;;17.58;;
16845;SDS011;8539;53.188;8.696;2023-03-01T17:42:04;27.02;;;16.88;;
16845;SDS011;8539;53.188;8.696;2023-03-01T17:44:31;28.98;;;18.85;;
16845;SDS011;8539;53.188;8.696;2023-03-01T17:46:59;33.50;;;18.17;;